Rochester, MA

2:18 PM EDT on August 30, 2014 (GMT -0400)
New Bedford Regional | Change Station
CLOSE
Current Station
Airport
Location: New Bedford,
Elevation: 79 ft
Nearby Weather Stations

Elev 79 ft 41.68 °N, 70.96 °W | Updated 25 minutes ago

Clear
Clear
73 °F
Feels Like 73 °F
N
12
Wind Variable Wind from South

Today
High -- | Low -- °F
--% Chance of Precip.
Yesterday
High -- | Low -- °F
Precip. -- in
6:07 AM 7:20 PM
Waxing Crescent, 23% visible
Pressure 30.26 in
Visibility 10.0 miles
Clouds Clear
Dew Point 57 °F
Humidity 57%
Rainfall 0.00 in
Snow Depth Not available.
UV 9 out of 12
Pollen 7.00 out of 12
Ozone Good
PM2.5 Good
Flu Activity Not available.
METAR KEWB 301753Z 18010KT 10SM CLR 23/14 A3025 RMK AO2 SLP245 T02280139 10233 20139 58010

More Conditions Fewer Conditions

Pressure 30.26 in
Visibility 10.0 miles
Clouds Clear
Dew Point 57 °F
Humidity 57%
Rainfall 0.00 in
Snow Depth Not available.
UV 9 out of 12
Pollen 7.00 out of 12
Ozone Good
PM2.5 Good
Flu Activity Not available.
METAR KEWB 301753Z 18010KT 10SM CLR 23/14 A3025 RMK AO2 SLP245 T02280139 10233 20139 58010

More Conditions Fewer Conditions

10-Day Weather Forecast

Almanac

Astronomy

Aug. 30, 2014 Rise Set
Actual Time 6:07 AM EDT 7:20 PM EDT
Civil Twilight 5:38 AM EDT 7:48 PM EDT
Nautical Twilight 5:03 AM EDT 8:23 PM EDT
Astronomical Twilight 4:27 AM EDT 8:59 PM EDT
Moon 10:56 AM EDT 9:47 PM EDT
Length of Visible Light 14h 10m
Length of Day
13h 12m
Tomorrow will be 2m 40s shorter.
Waxing Crescent, 23% of the Moon is Illuminated
Today
Waxing Crescent
Sep 2
First Quarter
Sep 8
Full
Sep 15
Last Quarter
Sep 24
New

Today's Extremes

State Highs State Lows

Community

WunderPhotos

Upload Photos

1,748,583 photos uploaded!

WunderBlogs® & News

Nearby

Air Quality

  Air Quality AQ Index Pollutant
Yesterday Good
PM2.5
Yesterday Good
OZONE
Current Good
PM2.5
Current Good
OZONE
Saturday Good
PM2.5
Saturday Good
OZONE

Snow Depth

Station Depth Elevation
No new snow has been reported.

Earthquake Activity

City Distance Mag. Time & Date
No recent earthquake activity has been reported nearby.
Minimum magnitude displayed is 2.5.

Coastal Water Temperatures

Place Temperature
Woods Hole, MA 71.1 °F
Fall River, MA 73.0 °F
Newport, RI 69.1 °F

Nearby Weather Stations